sensor_id;sensor_type;location;lat;lon;timestamp;P1;durP1;ratioP1;P2;durP2;ratioP2
70342;SDS011;57767;42.068;24.752;2024-01-15T00:00:17;98.75;;;57.22;;
70342;SDS011;57767;42.068;24.752;2024-01-15T00:01:19;107.15;;;59.40;;
70342;SDS011;57767;42.068;24.752;2024-01-15T00:02:21;111.88;;;60.83;;
70342;SDS011;57767;42.068;24.752;2024-01-15T00:03:22;110.55;;;59.58;;
70342;SDS011;57767;42.068;24.752;2024-01-15T00:04:24;112.78;;;56.65;;
70342;SDS011;57767;42.068;24.752;2024-01-15T00:05:26;105.03;;;56.30;;
70342;SDS011;57767;42.068;24.752;2024-01-15T00:06:27;105.32;;;57.33;;
70342;SDS011;57767;42.068;24.752;2024-01-15T00:07:30;109.90;;;55.72;;
70342;SDS011;57767;42.068;24.752;2024-01-15T00:08:31;86.78;;;51.05;;
70342;SDS011;57767;42.068;24.752;2024-01-15T00:09:33;86.40;;;49.28;;
70342;SDS011;57767;42.068;24.752;2024-01-15T00:10:35;66.43;;;29.75;;
70342;SDS011;57767;42.068;24.752;2024-01-15T00:11:36;73.57;;;45.92;;
70342;SDS011;57767;42.068;24.752;2024-01-15T00:12:38;70.65;;;44.65;;
70342;SDS011;57767;42.068;24.752;2024-01-15T00:13:39;72.57;;;43.00;;
70342;SDS011;57767;42.068;24.752;2024-01-15T00:14:41;69.70;;;29.05;;
70342;SDS011;57767;42.068;24.752;2024-01-15T00:15:43;84.53;;;48.13;;
70342;SDS011;57767;42.068;24.752;2024-01-15T00:16:45;73.00;;;44.53;;
70342;SDS011;57767;42.068;24.752;2024-01-15T00:17:47;78.68;;;47.08;;
70342;SDS011;57767;42.068;24.752;2024-01-15T00:18:49;67.97;;;43.53;;
70342;SDS011;57767;42.068;24.752;2024-01-15T00:19:51;70.90;;;44.53;;
70342;SDS011;57767;42.068;24.752;2024-01-15T00:20:53;63.33;;;42.88;;
70342;SDS011;57767;42.068;24.752;2024-01-15T00:21:55;59.92;;;24.83;;
70342;SDS011;57767;42.068;24.752;2024-01-15T00:22:56;56.00;;;37.33;;
70342;SDS011;57767;42.068;24.752;2024-01-15T00:23:58;59.10;;;39.15;;
70342;SDS011;57767;42.068;24.752;2024-01-15T00:25:00;61.50;;;40.85;;
70342;SDS011;57767;42.068;24.752;2024-01-15T00:26:01;59.75;;;39.65;;
70342;SDS011;57767;42.068;24.752;2024-01-15T00:27:03;57.80;;;39.80;;
70342;SDS011;57767;42.068;24.752;2024-01-15T00:28:05;59.78;;;39.58;;
70342;SDS011;57767;42.068;24.752;2024-01-15T00:29:07;62.83;;;39.80;;
70342;SDS011;57767;42.068;24.752;2024-01-15T00:30:09;56.90;;;40.50;;
70342;SDS011;57767;42.068;24.752;2024-01-15T00:31:11;56.35;;;38.30;;
70342;SDS011;57767;42.068;24.752;2024-01-15T00:32:13;56.88;;;40.92;;
70342;SDS011;57767;42.068;24.752;2024-01-15T00:33:15;52.42;;;38.83;;
70342;SDS011;57767;42.068;24.752;2024-01-15T00:34:16;54.03;;;39.28;;
70342;SDS011;57767;42.068;24.752;2024-01-15T00:35:18;58.03;;;39.00;;
70342;SDS011;57767;42.068;24.752;2024-01-15T00:36:20;56.75;;;39.42;;
70342;SDS011;57767;42.068;24.752;2024-01-15T00:37:21;57.00;;;39.65;;
70342;SDS011;57767;42.068;24.752;2024-01-15T00:38:23;57.50;;;40.03;;
70342;SDS011;57767;42.068;24.752;2024-01-15T00:39:25;59.65;;;40.20;;
70342;SDS011;57767;42.068;24.752;2024-01-15T00:40:27;55.35;;;38.00;;
70342;SDS011;57767;42.068;24.752;2024-01-15T00:41:29;56.72;;;39.63;;
70342;SDS011;57767;42.068;24.752;2024-01-15T00:42:30;41.90;;;20.73;;
70342;SDS011;57767;42.068;24.752;2024-01-15T00:43:32;53.97;;;38.00;;
70342;SDS011;57767;42.068;24.752;2024-01-15T00:44:33;56.30;;;38.10;;
70342;SDS011;57767;42.068;24.752;2024-01-15T00:45:35;54.88;;;38.10;;
70342;SDS011;57767;42.068;24.752;2024-01-15T00:46:43;55.95;;;37.97;;
70342;SDS011;57767;42.068;24.752;2024-01-15T00:47:46;57.75;;;38.33;;
70342;SDS011;57767;42.068;24.752;2024-01-15T00:48:48;56.13;;;39.72;;
70342;SDS011;57767;42.068;24.752;2024-01-15T00:49:50;59.53;;;40.47;;
70342;SDS011;57767;42.068;24.752;2024-01-15T00:50:51;63.20;;;42.75;;
70342;SDS011;57767;42.068;24.752;2024-01-15T00:51:55;68.00;;;44.17;;
70342;SDS011;57767;42.068;24.752;2024-01-15T00:52:57;79.25;;;46.47;;
70342;SDS011;57767;42.068;24.752;2024-01-15T00:53:58;93.00;;;53.30;;
70342;SDS011;57767;42.068;24.752;2024-01-15T00:55:00;86.30;;;52.20;;
70342;SDS011;57767;42.068;24.752;2024-01-15T00:56:02;91.90;;;52.85;;
70342;SDS011;57767;42.068;24.752;2024-01-15T00:57:04;83.75;;;48.47;;
70342;SDS011;57767;42.068;24.752;2024-01-15T00:58:06;88.15;;;51.40;;
70342;SDS011;57767;42.068;24.752;2024-01-15T00:59:07;86.03;;;50.13;;
70342;SDS011;57767;42.068;24.752;2024-01-15T01:00:11;79.57;;;49.20;;
70342;SDS011;57767;42.068;24.752;2024-01-15T01:01:14;75.00;;;47.75;;
70342;SDS011;57767;42.068;24.752;2024-01-15T01:02:15;75.65;;;47.75;;
70342;SDS011;57767;42.068;24.752;2024-01-15T01:03:17;76.10;;;46.67;;
70342;SDS011;57767;42.068;24.752;2024-01-15T01:04:19;84.22;;;48.95;;
70342;SDS011;57767;42.068;24.752;2024-01-15T01:05:21;82.43;;;49.45;;
70342;SDS011;57767;42.068;24.752;2024-01-15T01:06:22;73.15;;;47.47;;
70342;SDS011;57767;42.068;24.752;2024-01-15T01:07:24;70.28;;;44.63;;
70342;SDS011;57767;42.068;24.752;2024-01-15T01:08:25;66.15;;;44.22;;
70342;SDS011;57767;42.068;24.752;2024-01-15T01:09:27;63.85;;;42.72;;
70342;SDS011;57767;42.068;24.752;2024-01-15T01:10:31;66.97;;;44.75;;
70342;SDS011;57767;42.068;24.752;2024-01-15T01:11:33;70.50;;;43.05;;
70342;SDS011;57767;42.068;24.752;2024-01-15T01:12:34;76.78;;;47.53;;
70342;SDS011;57767;42.068;24.752;2024-01-15T01:13:36;73.25;;;45.42;;
70342;SDS011;57767;42.068;24.752;2024-01-15T01:14:38;75.80;;;45.30;;
70342;SDS011;57767;42.068;24.752;2024-01-15T01:15:39;74.60;;;45.83;;
70342;SDS011;57767;42.068;24.752;2024-01-15T01:16:41;80.47;;;49.20;;
70342;SDS011;57767;42.068;24.752;2024-01-15T01:17:43;75.57;;;47.60;;
70342;SDS011;57767;42.068;24.752;2024-01-15T01:18:45;66.07;;;44.28;;
70342;SDS011;57767;42.068;24.752;2024-01-15T01:19:47;69.55;;;45.95;;
70342;SDS011;57767;42.068;24.752;2024-01-15T01:20:48;78.45;;;44.65;;
70342;SDS011;57767;42.068;24.752;2024-01-15T01:21:50;78.10;;;45.58;;
70342;SDS011;57767;42.068;24.752;2024-01-15T01:22:52;71.45;;;45.67;;
70342;SDS011;57767;42.068;24.752;2024-01-15T01:23:54;75.32;;;46.00;;
70342;SDS011;57767;42.068;24.752;2024-01-15T01:24:55;72.63;;;47.00;;
70342;SDS011;57767;42.068;24.752;2024-01-15T01:25:57;80.65;;;46.40;;
70342;SDS011;57767;42.068;24.752;2024-01-15T01:26:59;73.10;;;43.65;;
70342;SDS011;57767;42.068;24.752;2024-01-15T01:28:00;64.80;;;39.63;;
70342;SDS011;57767;42.068;24.752;2024-01-15T01:29:02;56.00;;;34.75;;
70342;SDS011;57767;42.068;24.752;2024-01-15T01:30:03;45.78;;;29.63;;
70342;SDS011;57767;42.068;24.752;2024-01-15T01:31:06;54.22;;;33.85;;
70342;SDS011;57767;42.068;24.752;2024-01-15T01:32:09;56.65;;;34.95;;
70342;SDS011;57767;42.068;24.752;2024-01-15T01:33:11;51.78;;;32.47;;
70342;SDS011;57767;42.068;24.752;2024-01-15T01:34:13;44.15;;;19.48;;
70342;SDS011;57767;42.068;24.752;2024-01-15T01:35:16;57.20;;;34.85;;
70342;SDS011;57767;42.068;24.752;2024-01-15T01:36:18;54.67;;;34.03;;
70342;SDS011;57767;42.068;24.752;2024-01-15T01:37:20;47.90;;;30.77;;
70342;SDS011;57767;42.068;24.752;2024-01-15T01:38:21;43.40;;;27.58;;
70342;SDS011;57767;42.068;24.752;2024-01-15T01:39:23;41.05;;;26.67;;
70342;SDS011;57767;42.068;24.752;2024-01-15T01:40:25;41.17;;;26.10;;
70342;SDS011;57767;42.068;24.752;2024-01-15T01:41:26;39.67;;;26.92;;
70342;SDS011;57767;42.068;24.752;2024-01-15T01:42:28;38.97;;;26.02;;
70342;SDS011;57767;42.068;24.752;2024-01-15T01:43:30;37.42;;;25.38;;
70342;SDS011;57767;42.068;24.752;2024-01-15T01:44:31;33.17;;;22.33;;
70342;SDS011;57767;42.068;24.752;2024-01-15T01:45:33;32.20;;;22.48;;
70342;SDS011;57767;42.068;24.752;2024-01-15T01:46:35;34.92;;;23.60;;
70342;SDS011;57767;42.068;24.752;2024-01-15T01:47:41;34.38;;;24.73;;
70342;SDS011;57767;42.068;24.752;2024-01-15T01:48:43;35.08;;;25.92;;
70342;SDS011;57767;42.068;24.752;2024-01-15T01:49:45;37.50;;;25.80;;
70342;SDS011;57767;42.068;24.752;2024-01-15T01:50:48;31.92;;;22.88;;
70342;SDS011;57767;42.068;24.752;2024-01-15T01:51:49;36.88;;;24.15;;
70342;SDS011;57767;42.068;24.752;2024-01-15T01:52:52;37.38;;;25.13;;
70342;SDS011;57767;42.068;24.752;2024-01-15T01:53:54;34.78;;;24.85;;
70342;SDS011;57767;42.068;24.752;2024-01-15T01:54:56;34.42;;;24.85;;
70342;SDS011;57767;42.068;24.752;2024-01-15T01:55:58;36.75;;;25.45;;
70342;SDS011;57767;42.068;24.752;2024-01-15T01:57:00;38.15;;;25.77;;
70342;SDS011;57767;42.068;24.752;2024-01-15T01:58:05;36.83;;;25.30;;
70342;SDS011;57767;42.068;24.752;2024-01-15T01:59:07;41.40;;;26.70;;
70342;SDS011;57767;42.068;24.752;2024-01-15T02:00:11;39.35;;;26.00;;
70342;SDS011;57767;42.068;24.752;2024-01-15T02:01:13;47.53;;;30.92;;
70342;SDS011;57767;42.068;24.752;2024-01-15T02:02:17;77.65;;;41.53;;
70342;SDS011;57767;42.068;24.752;2024-01-15T02:03:19;84.45;;;43.88;;
70342;SDS011;57767;42.068;24.752;2024-01-15T02:04:22;92.20;;;45.72;;
70342;SDS011;57767;42.068;24.752;2024-01-15T02:05:25;93.00;;;46.85;;
70342;SDS011;57767;42.068;24.752;2024-01-15T02:06:28;115.38;;;51.10;;
70342;SDS011;57767;42.068;24.752;2024-01-15T02:07:30;114.30;;;51.35;;
70342;SDS011;57767;42.068;24.752;2024-01-15T02:08:33;100.53;;;50.53;;
70342;SDS011;57767;42.068;24.752;2024-01-15T02:09:36;88.93;;;47.72;;
70342;SDS011;57767;42.068;24.752;2024-01-15T02:10:38;84.40;;;46.35;;
70342;SDS011;57767;42.068;24.752;2024-01-15T02:11:39;76.30;;;44.35;;
70342;SDS011;57767;42.068;24.752;2024-01-15T02:12:42;77.28;;;46.47;;
70342;SDS011;57767;42.068;24.752;2024-01-15T02:13:44;84.05;;;48.58;;
70342;SDS011;57767;42.068;24.752;2024-01-15T02:14:46;81.63;;;50.10;;
70342;SDS011;57767;42.068;24.752;2024-01-15T02:15:47;82.05;;;49.65;;
70342;SDS011;57767;42.068;24.752;2024-01-15T02:16:49;81.03;;;48.40;;
70342;SDS011;57767;42.068;24.752;2024-01-15T02:17:57;76.30;;;47.13;;
70342;SDS011;57767;42.068;24.752;2024-01-15T02:18:59;75.85;;;46.30;;
70342;SDS011;57767;42.068;24.752;2024-01-15T02:20:01;80.80;;;49.20;;
70342;SDS011;57767;42.068;24.752;2024-01-15T02:21:03;83.32;;;50.60;;
70342;SDS011;57767;42.068;24.752;2024-01-15T02:22:05;75.97;;;49.20;;
70342;SDS011;57767;42.068;24.752;2024-01-15T02:24:08;78.10;;;50.63;;
70342;SDS011;57767;42.068;24.752;2024-01-15T02:25:10;75.95;;;48.33;;
70342;SDS011;57767;42.068;24.752;2024-01-15T02:26:11;71.05;;;47.00;;
70342;SDS011;57767;42.068;24.752;2024-01-15T02:27:13;65.35;;;46.25;;
70342;SDS011;57767;42.068;24.752;2024-01-15T02:28:16;69.43;;;45.55;;
70342;SDS011;57767;42.068;24.752;2024-01-15T02:29:19;68.65;;;45.08;;
70342;SDS011;57767;42.068;24.752;2024-01-15T02:30:20;73.13;;;46.75;;
70342;SDS011;57767;42.068;24.752;2024-01-15T02:31:23;69.20;;;45.55;;
70342;SDS011;57767;42.068;24.752;2024-01-15T02:32:25;65.07;;;43.88;;
70342;SDS011;57767;42.068;24.752;2024-01-15T02:33:27;65.53;;;45.08;;
70342;SDS011;57767;42.068;24.752;2024-01-15T02:34:31;63.95;;;44.55;;
70342;SDS011;57767;42.068;24.752;2024-01-15T02:35:33;66.32;;;46.53;;
70342;SDS011;57767;42.068;24.752;2024-01-15T02:36:37;68.30;;;47.28;;
70342;SDS011;57767;42.068;24.752;2024-01-15T02:37:39;62.70;;;44.00;;
70342;SDS011;57767;42.068;24.752;2024-01-15T02:38:41;65.88;;;44.72;;
70342;SDS011;57767;42.068;24.752;2024-01-15T02:39:42;73.47;;;46.22;;
70342;SDS011;57767;42.068;24.752;2024-01-15T02:40:44;68.30;;;45.30;;
70342;SDS011;57767;42.068;24.752;2024-01-15T02:41:46;72.70;;;46.45;;
70342;SDS011;57767;42.068;24.752;2024-01-15T02:42:48;65.95;;;45.13;;
70342;SDS011;57767;42.068;24.752;2024-01-15T02:43:50;61.92;;;25.92;;
70342;SDS011;57767;42.068;24.752;2024-01-15T02:44:51;68.93;;;47.83;;
70342;SDS011;57767;42.068;24.752;2024-01-15T02:45:53;63.88;;;45.55;;
70342;SDS011;57767;42.068;24.752;2024-01-15T02:46:54;67.47;;;47.05;;
70342;SDS011;57767;42.068;24.752;2024-01-15T02:47:56;72.72;;;47.45;;
70342;SDS011;57767;42.068;24.752;2024-01-15T02:48:58;81.60;;;48.70;;
70342;SDS011;57767;42.068;24.752;2024-01-15T02:49:59;78.03;;;48.25;;
70342;SDS011;57767;42.068;24.752;2024-01-15T02:51:01;67.82;;;44.22;;
70342;SDS011;57767;42.068;24.752;2024-01-15T02:52:03;46.40;;;22.05;;
70342;SDS011;57767;42.068;24.752;2024-01-15T02:53:05;60.13;;;40.20;;
70342;SDS011;57767;42.068;24.752;2024-01-15T02:54:06;47.25;;;22.83;;
70342;SDS011;57767;42.068;24.752;2024-01-15T02:55:08;58.28;;;38.05;;
70342;SDS011;57767;42.068;24.752;2024-01-15T02:56:10;54.13;;;37.72;;
70342;SDS011;57767;42.068;24.752;2024-01-15T02:57:11;45.15;;;21.75;;
70342;SDS011;57767;42.068;24.752;2024-01-15T02:58:14;52.88;;;37.08;;
70342;SDS011;57767;42.068;24.752;2024-01-15T02:59:15;56.72;;;37.67;;
70342;SDS011;57767;42.068;24.752;2024-01-15T03:00:17;59.90;;;38.20;;
70342;SDS011;57767;42.068;24.752;2024-01-15T03:01:19;55.22;;;36.80;;
70342;SDS011;57767;42.068;24.752;2024-01-15T03:02:26;52.42;;;36.90;;
70342;SDS011;57767;42.068;24.752;2024-01-15T03:03:28;53.53;;;37.42;;
70342;SDS011;57767;42.068;24.752;2024-01-15T03:04:30;57.47;;;37.45;;
70342;SDS011;57767;42.068;24.752;2024-01-15T03:05:31;52.92;;;38.20;;
70342;SDS011;57767;42.068;24.752;2024-01-15T03:06:33;44.85;;;19.27;;
70342;SDS011;57767;42.068;24.752;2024-01-15T03:07:35;51.95;;;35.47;;
70342;SDS011;57767;42.068;24.752;2024-01-15T03:08:37;52.42;;;35.42;;
70342;SDS011;57767;42.068;24.752;2024-01-15T03:09:38;51.67;;;36.22;;
70342;SDS011;57767;42.068;24.752;2024-01-15T03:10:40;52.78;;;35.92;;
70342;SDS011;57767;42.068;24.752;2024-01-15T03:11:41;56.58;;;37.58;;
70342;SDS011;57767;42.068;24.752;2024-01-15T03:12:44;54.22;;;36.55;;
70342;SDS011;57767;42.068;24.752;2024-01-15T03:13:45;53.42;;;35.88;;
70342;SDS011;57767;42.068;24.752;2024-01-15T03:14:47;52.33;;;35.92;;
70342;SDS011;57767;42.068;24.752;2024-01-15T03:15:49;52.72;;;36.35;;
70342;SDS011;57767;42.068;24.752;2024-01-15T03:16:51;50.60;;;34.42;;
70342;SDS011;57767;42.068;24.752;2024-01-15T03:17:52;41.65;;;18.80;;
70342;SDS011;57767;42.068;24.752;2024-01-15T03:18:54;55.78;;;37.13;;
70342;SDS011;57767;42.068;24.752;2024-01-15T03:19:56;55.42;;;36.15;;
70342;SDS011;57767;42.068;24.752;2024-01-15T03:20:58;46.85;;;23.92;;
70342;SDS011;57767;42.068;24.752;2024-01-15T03:21:59;66.55;;;43.65;;
70342;SDS011;57767;42.068;24.752;2024-01-15T03:23:02;70.63;;;44.50;;
70342;SDS011;57767;42.068;24.752;2024-01-15T03:24:03;62.45;;;40.97;;
70342;SDS011;57767;42.068;24.752;2024-01-15T03:25:05;59.33;;;39.33;;
70342;SDS011;57767;42.068;24.752;2024-01-15T03:26:08;60.50;;;38.70;;
70342;SDS011;57767;42.068;24.752;2024-01-15T03:27:09;60.33;;;39.78;;
70342;SDS011;57767;42.068;24.752;2024-01-15T03:28:11;78.05;;;46.25;;
70342;SDS011;57767;42.068;24.752;2024-01-15T03:29:12;67.05;;;41.97;;
70342;SDS011;57767;42.068;24.752;2024-01-15T03:30:14;59.58;;;39.17;;
70342;SDS011;57767;42.068;24.752;2024-01-15T03:31:15;55.60;;;39.22;;
70342;SDS011;57767;42.068;24.752;2024-01-15T03:32:17;42.53;;;20.80;;
70342;SDS011;57767;42.068;24.752;2024-01-15T03:33:20;55.45;;;40.20;;
70342;SDS011;57767;42.068;24.752;2024-01-15T03:34:22;64.10;;;42.85;;
70342;SDS011;57767;42.068;24.752;2024-01-15T03:35:24;61.70;;;40.85;;
70342;SDS011;57767;42.068;24.752;2024-01-15T03:36:30;60.95;;;41.22;;
70342;SDS011;57767;42.068;24.752;2024-01-15T03:37:32;56.50;;;37.65;;
70342;SDS011;57767;42.068;24.752;2024-01-15T03:38:33;60.95;;;40.60;;
70342;SDS011;57767;42.068;24.752;2024-01-15T03:39:35;53.05;;;37.78;;
70342;SDS011;57767;42.068;24.752;2024-01-15T03:40:37;51.95;;;37.47;;
70342;SDS011;57767;42.068;24.752;2024-01-15T03:41:38;51.55;;;36.22;;
70342;SDS011;57767;42.068;24.752;2024-01-15T03:42:40;39.35;;;20.42;;
70342;SDS011;57767;42.068;24.752;2024-01-15T03:43:42;56.47;;;37.20;;
70342;SDS011;57767;42.068;24.752;2024-01-15T03:44:43;55.95;;;37.95;;
70342;SDS011;57767;42.068;24.752;2024-01-15T03:45:45;55.70;;;38.67;;
70342;SDS011;57767;42.068;24.752;2024-01-15T03:46:47;41.63;;;22.00;;
70342;SDS011;57767;42.068;24.752;2024-01-15T03:47:48;57.10;;;38.65;;
70342;SDS011;57767;42.068;24.752;2024-01-15T03:48:50;53.22;;;37.28;;
70342;SDS011;57767;42.068;24.752;2024-01-15T03:49:52;54.70;;;37.53;;
70342;SDS011;57767;42.068;24.752;2024-01-15T03:50:54;42.05;;;20.33;;
70342;SDS011;57767;42.068;24.752;2024-01-15T03:51:55;49.60;;;36.22;;
70342;SDS011;57767;42.068;24.752;2024-01-15T03:52:57;51.53;;;35.85;;
70342;SDS011;57767;42.068;24.752;2024-01-15T03:53:58;40.47;;;20.35;;
70342;SDS011;57767;42.068;24.752;2024-01-15T03:55:00;50.35;;;36.00;;
70342;SDS011;57767;42.068;24.752;2024-01-15T03:56:02;48.75;;;34.65;;
70342;SDS011;57767;42.068;24.752;2024-01-15T03:57:04;48.83;;;34.60;;
70342;SDS011;57767;42.068;24.752;2024-01-15T03:58:05;52.13;;;34.75;;
70342;SDS011;57767;42.068;24.752;2024-01-15T03:59:07;52.67;;;34.80;;
70342;SDS011;57767;42.068;24.752;2024-01-15T04:00:09;48.92;;;33.78;;
70342;SDS011;57767;42.068;24.752;2024-01-15T04:01:11;50.42;;;33.22;;
70342;SDS011;57767;42.068;24.752;2024-01-15T04:02:13;36.15;;;18.30;;
70342;SDS011;57767;42.068;24.752;2024-01-15T04:03:15;62.03;;;37.63;;
70342;SDS011;57767;42.068;24.752;2024-01-15T04:04:17;49.67;;;34.45;;
70342;SDS011;57767;42.068;24.752;2024-01-15T04:05:20;49.40;;;34.60;;
70342;SDS011;57767;42.068;24.752;2024-01-15T04:06:21;55.40;;;37.60;;
70342;SDS011;57767;42.068;24.752;2024-01-15T04:07:23;43.20;;;22.75;;
70342;SDS011;57767;42.068;24.752;2024-01-15T04:08:25;53.80;;;37.40;;
70342;SDS011;57767;42.068;24.752;2024-01-15T04:09:27;51.63;;;39.70;;
70342;SDS011;57767;42.068;24.752;2024-01-15T04:10:28;52.45;;;37.92;;
70342;SDS011;57767;42.068;24.752;2024-01-15T04:11:30;55.90;;;38.05;;
70342;SDS011;57767;42.068;24.752;2024-01-15T04:12:32;56.20;;;39.53;;
70342;SDS011;57767;42.068;24.752;2024-01-15T04:13:33;54.45;;;36.05;;
70342;SDS011;57767;42.068;24.752;2024-01-15T04:14:35;52.45;;;36.40;;
70342;SDS011;57767;42.068;24.752;2024-01-15T04:15:37;56.05;;;39.47;;
70342;SDS011;57767;42.068;24.752;2024-01-15T04:16:39;41.25;;;21.73;;
70342;SDS011;57767;42.068;24.752;2024-01-15T04:17:40;54.08;;;37.17;;
70342;SDS011;57767;42.068;24.752;2024-01-15T04:18:42;52.00;;;36.60;;
70342;SDS011;57767;42.068;24.752;2024-01-15T04:19:44;52.03;;;37.42;;
70342;SDS011;57767;42.068;24.752;2024-01-15T04:20:46;53.72;;;37.28;;
70342;SDS011;57767;42.068;24.752;2024-01-15T04:21:47;56.00;;;36.03;;
70342;SDS011;57767;42.068;24.752;2024-01-15T04:22:49;53.58;;;37.13;;
70342;SDS011;57767;42.068;24.752;2024-01-15T04:23:51;55.30;;;36.95;;
70342;SDS011;57767;42.068;24.752;2024-01-15T04:24:52;55.58;;;37.60;;
70342;SDS011;57767;42.068;24.752;2024-01-15T04:25:54;48.35;;;35.42;;
70342;SDS011;57767;42.068;24.752;2024-01-15T04:26:56;48.75;;;34.90;;
70342;SDS011;57767;42.068;24.752;2024-01-15T04:27:57;48.92;;;34.35;;
70342;SDS011;57767;42.068;24.752;2024-01-15T04:28:59;51.13;;;35.80;;
70342;SDS011;57767;42.068;24.752;2024-01-15T04:30:00;52.78;;;36.55;;
70342;SDS011;57767;42.068;24.752;2024-01-15T04:31:02;63.63;;;41.05;;
70342;SDS011;57767;42.068;24.752;2024-01-15T04:32:04;52.45;;;37.85;;
70342;SDS011;57767;42.068;24.752;2024-01-15T04:33:06;57.80;;;38.22;;
70342;SDS011;57767;42.068;24.752;2024-01-15T04:34:08;54.67;;;39.17;;
70342;SDS011;57767;42.068;24.752;2024-01-15T04:35:10;55.72;;;38.75;;
70342;SDS011;57767;42.068;24.752;2024-01-15T04:36:11;54.72;;;39.00;;
70342;SDS011;57767;42.068;24.752;2024-01-15T04:37:13;49.75;;;34.67;;
70342;SDS011;57767;42.068;24.752;2024-01-15T04:38:15;43.95;;;30.77;;
70342;SDS011;57767;42.068;24.752;2024-01-15T04:39:16;38.45;;;27.52;;
70342;SDS011;57767;42.068;24.752;2024-01-15T04:40:18;36.80;;;25.67;;
70342;SDS011;57767;42.068;24.752;2024-01-15T04:41:20;34.33;;;24.92;;
70342;SDS011;57767;42.068;24.752;2024-01-15T04:42:21;34.63;;;25.27;;
70342;SDS011;57767;42.068;24.752;2024-01-15T04:43:23;34.40;;;24.92;;
70342;SDS011;57767;42.068;24.752;2024-01-15T04:44:24;34.05;;;24.45;;
70342;SDS011;57767;42.068;24.752;2024-01-15T04:45:26;27.95;;;12.55;;
70342;SDS011;57767;42.068;24.752;2024-01-15T04:46:30;35.83;;;24.60;;
70342;SDS011;57767;42.068;24.752;2024-01-15T04:47:31;33.35;;;23.55;;
70342;SDS011;57767;42.068;24.752;2024-01-15T04:48:33;36.10;;;26.00;;
70342;SDS011;57767;42.068;24.752;2024-01-15T04:49:35;39.03;;;26.27;;
70342;SDS011;57767;42.068;24.752;2024-01-15T04:50:36;41.25;;;30.25;;
70342;SDS011;57767;42.068;24.752;2024-01-15T04:51:38;54.90;;;47.25;;
70342;SDS011;57767;42.068;24.752;2024-01-15T04:52:40;60.78;;;53.28;;
70342;SDS011;57767;42.068;24.752;2024-01-15T04:53:41;49.42;;;41.78;;
70342;SDS011;57767;42.068;24.752;2024-01-15T04:54:43;42.33;;;35.03;;
70342;SDS011;57767;42.068;24.752;2024-01-15T04:55:44;34.78;;;20.05;;
70342;SDS011;57767;42.068;24.752;2024-01-15T04:56:46;42.63;;;35.05;;
70342;SDS011;57767;42.068;24.752;2024-01-15T04:57:48;31.25;;;18.40;;
70342;SDS011;57767;42.068;24.752;2024-01-15T04:58:49;50.42;;;35.72;;
70342;SDS011;57767;42.068;24.752;2024-01-15T04:59:51;36.22;;;18.48;;
70342;SDS011;57767;42.068;24.752;2024-01-15T05:00:53;46.22;;;34.65;;
70342;SDS011;57767;42.068;24.752;2024-01-15T05:01:56;45.67;;;34.63;;
70342;SDS011;57767;42.068;24.752;2024-01-15T05:02:57;48.40;;;33.00;;
70342;SDS011;57767;42.068;24.752;2024-01-15T05:03:59;44.53;;;34.78;;
70342;SDS011;57767;42.068;24.752;2024-01-15T05:05:01;48.90;;;34.35;;
70342;SDS011;57767;42.068;24.752;2024-01-15T05:06:02;50.35;;;37.45;;
70342;SDS011;57767;42.068;24.752;2024-01-15T05:07:05;50.33;;;35.88;;
70342;SDS011;57767;42.068;24.752;2024-01-15T05:08:06;39.28;;;18.67;;
70342;SDS011;57767;42.068;24.752;2024-01-15T05:09:08;51.70;;;37.45;;
70342;SDS011;57767;42.068;24.752;2024-01-15T05:10:10;47.92;;;33.50;;
70342;SDS011;57767;42.068;24.752;2024-01-15T05:11:11;48.60;;;34.33;;
70342;SDS011;57767;42.068;24.752;2024-01-15T05:12:13;47.25;;;34.65;;
70342;SDS011;57767;42.068;24.752;2024-01-15T05:13:14;50.08;;;34.53;;
70342;SDS011;57767;42.068;24.752;2024-01-15T05:14:16;47.97;;;34.90;;
70342;SDS011;57767;42.068;24.752;2024-01-15T05:15:18;47.95;;;34.88;;
70342;SDS011;57767;42.068;24.752;2024-01-15T05:16:19;47.33;;;34.20;;
70342;SDS011;57767;42.068;24.752;2024-01-15T05:17:21;48.58;;;34.95;;
70342;SDS011;57767;42.068;24.752;2024-01-15T05:18:23;49.22;;;37.17;;
70342;SDS011;57767;42.068;24.752;2024-01-15T05:19:25;52.50;;;37.72;;
70342;SDS011;57767;42.068;24.752;2024-01-15T05:20:26;48.30;;;22.58;;
70342;SDS011;57767;42.068;24.752;2024-01-15T05:21:28;53.13;;;39.20;;
70342;SDS011;57767;42.068;24.752;2024-01-15T05:22:30;62.75;;;42.60;;
70342;SDS011;57767;42.068;24.752;2024-01-15T05:23:31;94.18;;;50.58;;
70342;SDS011;57767;42.068;24.752;2024-01-15T05:24:33;83.43;;;32.85;;
70342;SDS011;57767;42.068;24.752;2024-01-15T05:25:34;209.40;;;94.40;;
70342;SDS011;57767;42.068;24.752;2024-01-15T05:26:36;187.57;;;86.82;;
70342;SDS011;57767;42.068;24.752;2024-01-15T05:27:37;188.55;;;84.40;;
70342;SDS011;57767;42.068;24.752;2024-01-15T05:28:42;182.10;;;86.18;;
70342;SDS011;57767;42.068;24.752;2024-01-15T05:29:44;169.15;;;77.68;;
70342;SDS011;57767;42.068;24.752;2024-01-15T05:30:45;137.45;;;68.85;;
70342;SDS011;57767;42.068;24.752;2024-01-15T05:31:48;124.57;;;65.57;;
70342;SDS011;57767;42.068;24.752;2024-01-15T05:32:49;139.23;;;73.15;;
70342;SDS011;57767;42.068;24.752;2024-01-15T05:33:51;106.68;;;38.13;;
70342;SDS011;57767;42.068;24.752;2024-01-15T05:34:53;143.23;;;74.30;;
70342;SDS011;57767;42.068;24.752;2024-01-15T05:35:55;103.63;;;41.10;;
70342;SDS011;57767;42.068;24.752;2024-01-15T05:36:56;116.55;;;64.85;;
70342;SDS011;57767;42.068;24.752;2024-01-15T05:37:58;105.60;;;61.60;;
70342;SDS011;57767;42.068;24.752;2024-01-15T05:39:00;87.13;;;35.97;;
70342;SDS011;57767;42.068;24.752;2024-01-15T05:40:01;95.72;;;59.22;;
70342;SDS011;57767;42.068;24.752;2024-01-15T05:41:06;94.63;;;56.63;;
70342;SDS011;57767;42.068;24.752;2024-01-15T05:42:08;73.63;;;33.47;;
70342;SDS011;57767;42.068;24.752;2024-01-15T05:43:10;90.65;;;53.58;;
70342;SDS011;57767;42.068;24.752;2024-01-15T05:44:11;84.93;;;52.10;;
70342;SDS011;57767;42.068;24.752;2024-01-15T05:45:13;93.03;;;54.35;;
70342;SDS011;57767;42.068;24.752;2024-01-15T05:46:15;80.68;;;52.97;;
70342;SDS011;57767;42.068;24.752;2024-01-15T05:47:17;75.18;;;49.20;;
70342;SDS011;57767;42.068;24.752;2024-01-15T05:48:19;76.30;;;50.35;;
70342;SDS011;57767;42.068;24.752;2024-01-15T05:49:21;86.20;;;53.22;;
70342;SDS011;57767;42.068;24.752;2024-01-15T05:50:23;86.53;;;53.95;;
70342;SDS011;57767;42.068;24.752;2024-01-15T05:51:25;85.60;;;53.85;;
70342;SDS011;57767;42.068;24.752;2024-01-15T05:52:26;69.25;;;49.33;;
70342;SDS011;57767;42.068;24.752;2024-01-15T05:53:28;69.53;;;47.58;;
70342;SDS011;57767;42.068;24.752;2024-01-15T05:54:30;65.63;;;48.30;;
70342;SDS011;57767;42.068;24.752;2024-01-15T05:55:32;71.05;;;47.80;;
70342;SDS011;57767;42.068;24.752;2024-01-15T05:56:33;67.55;;;47.50;;
70342;SDS011;57767;42.068;24.752;2024-01-15T05:57:35;69.93;;;48.60;;